METAR - Ísland

Uppfært síðast 27.02.2020 - kl. 15:16

SIGMET síðustu 6 klst.

BIRD SIGMET A02 VALID 271330/271700 BIRK- BIRD REYKJAVIK CTA SEV TURB FCST WI N6240 W01830 - N6400 W01800 - N6410 W02100 - N6350 W02240 - N6240 W01830 SFC/FL100 STNR NC
BIRD SIGMET A01 VALID 271130/271330 BIRK- BIRD REYKJAVIK CTA SEV TURB FCST WI N6340 W02210 - N6410 W02020 - N6350 W01820 - N6250 W01840 - N6340 W02210 SFC/FL100 STNR INTSF

METAR síðustu 3 klst

Flugv.TímiSkeyti
BIAR2020-02-27 15.00METAR BIAR 271500Z 17005KT 9999 FEW028 BKN050 M05/M11 Q1002 R01/490195 RMK WIND VADLAHEIDI 10422KT
BIAR2020-02-27 14.00METAR BIAR 271400Z 13006KT 9999 FEW030 BKN053 M05/M13 Q1003 R01/490195 RMK WIND VADLAHEIDI 09719KT
BIAR2020-02-27 13.00METAR BIAR 271300Z 16003KT 130V220 9999 FEW030 BKN053 M06/M12 Q1003 R01/490195 RMK WIND VADLAHEIDI 09719KT
BIBD2020-02-27 13.00METAR BIBD 271300Z 08009KT 9999 BKN035 M03/M10 Q0997
BIEG2020-02-27 15.00METAR BIEG 271500Z 08009KT 9999 BKN043 M06/M11 Q1002
BIEG2020-02-27 14.00METAR BIEG 271400Z 05010KT 9999 VCSH BKN045 M05/M10 Q1003
BIEG2020-02-27 13.18METAR BIEG 271318Z 05011KT 9999 VCSH BKN045 M04/M08 Q1003
BIGR2020-02-27 14.00METAR BIGR 271400Z 11018KT 9999 OVC024 M04/M11 Q1003
BIHN2020-02-27 15.00METAR BIHN 271500Z 03011KT 9999 FEW045 M04/M12 Q1001 R18/750295 RMK RUNWAY SANDED
BIHN2020-02-27 14.00METAR BIHN 271400Z 03010KT CAVOK M04/M10 Q1001 R18/750295 RMK RUNWAY SANDED
BIHN2020-02-27 13.00METAR BIHN 271300Z 03012KT CAVOK M04/M11 Q1001 R18/750295 RMK RUNWAY SANDED
BIHU2020-02-27 15.00METAR BIHU 271500Z 15008KT 9999 BKN045 BKN095 M06/M11 Q1002
BIHU2020-02-27 14.00METAR BIHU 271400Z 12003KT 9999 SCT050 BKN090 M06/M12 Q1003
BIHU2020-02-27 13.00METAR BIHU 271300Z 12003KT 9999 SCT050 BKN090 M06/M12 Q1003
BIIS2020-02-27 15.00METAR BIIS 271500Z 35014G30KT 310V040 9999 SCT030 BKN050 M02/M09 Q0997
BIIS2020-02-27 14.00METAR BIIS 271400Z VRB11G22KT 9999 BKN030 M02/M11 Q0998
BIIS2020-02-27 13.00METAR BIIS 271300Z 36019G32KT 310V070 9999 FEW025 BKN050 M02/M10 Q0997
BIKF2020-02-27 15.00METAR BIKF 271500Z 11020KT 1000 R10/P1500D -SN BLSN BKN003 OVC013 M02/M03 Q0992 R10/450149
BIKF2020-02-27 14.30METAR BIKF 271430Z 09011KT 4000 -SN BR BKN003 OVC015 M03/M03 Q0992
BIKF2020-02-27 14.00METAR COR BIKF 271400Z 10019KT 0500 R10/0500N +SN BLSN VV005 M03/M03 Q0993
BIKF2020-02-27 14.00METAR BIKF 271400Z KT 0500 R10/0500N +SN BLSN VV005 M03/M03 Q0993
BIKF2020-02-27 13.30METAR BIKF 271330Z 10021KT 0250 R10/0250N +SN BLSN BKN002 OVC011 M03/M03 Q0993
BIKF2020-02-27 13.00METAR BIKF 271300Z 08017KT 0700 R10/0600N -SN BLSN BKN002 OVC015 M04/M04 Q0993
BIKF2020-02-27 12.30METAR BIKF 271230Z 08022KT 0700 R10/0400N SN BLSN OVC002 M04/M04 Q0993
BIRK2020-02-27 15.11SPECI BIRK 271511Z 08016KT 0700 R19/1500N -SN BLSN SCT018 BKN025 OVC036 M03/M05 Q0993 R13/490245
BIRK2020-02-27 15.00METAR BIRK 271500Z 08017KT 2000 -SN BLSN SCT011 BKN031 OVC052 M03/M05 Q0993 R13/490245
BIRK2020-02-27 14.10SPECI BIRK 271410Z 07014KT 0500 R19/1500N -SN BLSN VV010 M03/M05 Q0993
BIRK2020-02-27 14.00METAR BIRK 271400Z 05014KT 020V080 9999 -SN FEW021 SCT029 OVC047 M03/M06 Q0994 R13/490245
BIRK2020-02-27 13.00METAR BIRK 271300Z 08009KT 050V110 9999 VCSH FEW009 BKN025 OVC038 M03/M06 Q0994 R13/490245
BIVM2020-02-27 14.00METAR BIVM 271400Z 08042G54KT 5000 SN DRSN SCT008 BKN015 OVC020 M01/M02 Q0990
BIVM2020-02-27 13.00METAR BIVM 271300Z 09039G55KT 8000 DRSN SCT010 BKN015 OVC025 M01/M02 Q0991
BIVO2020-02-27 15.00METAR BIVO 271500Z 04015KT 9999 OVC030 M04/M11 Q1003 R05/492045

Textaspár eru skrifaðar af vakthafandi veðurfræðingi á Veðurstofu Íslands.




Aðrir tengdir vefir



Þetta vefsvæði byggir á Eplica